createdAt,value
2018-08-30T00:00:51.722Z,19.40
2018-08-30T00:03:20.138Z,19.20
2018-08-30T00:05:48.721Z,19.20
2018-08-30T00:08:17.105Z,19.10
2018-08-30T00:10:45.484Z,19.10
2018-08-30T00:13:13.752Z,19.00
2018-08-30T00:15:42.359Z,19.10
2018-08-30T00:18:10.863Z,19.00
2018-08-30T00:20:39.466Z,19.00
2018-08-30T00:23:08.115Z,19.00
2018-08-30T00:25:36.395Z,18.90
2018-08-30T00:28:04.756Z,18.90
2018-08-30T00:30:33.470Z,18.90
2018-08-30T00:33:01.775Z,18.90
2018-08-30T00:35:30.097Z,18.90
2018-08-30T00:37:58.362Z,18.90
2018-08-30T00:40:26.627Z,18.90
2018-08-30T00:42:55.017Z,18.90
2018-08-30T00:45:23.454Z,18.90
2018-08-30T00:47:51.773Z,18.80
2018-08-30T00:50:20.114Z,18.80
2018-08-30T00:52:48.575Z,18.90
2018-08-30T00:55:16.882Z,18.90
2018-08-30T00:57:45.322Z,18.90
2018-08-30T01:00:13.561Z,18.90
2018-08-30T01:02:41.855Z,18.90
2018-08-30T01:05:10.448Z,18.90
2018-08-30T01:07:39.025Z,18.90
2018-08-30T01:10:07.568Z,18.90
2018-08-30T01:12:40.464Z,18.90
2018-08-30T01:15:08.936Z,18.90
2018-08-30T01:17:37.332Z,18.90
2018-08-30T01:20:06.332Z,18.90
2018-08-30T01:22:35.061Z,19.00
2018-08-30T01:25:03.754Z,19.00
2018-08-30T01:27:32.178Z,19.00
2018-08-30T01:30:00.482Z,19.00
2018-08-30T01:32:28.863Z,18.90
2018-08-30T01:34:57.146Z,18.90
2018-08-30T01:37:25.518Z,18.80
2018-08-30T01:39:53.895Z,18.80
2018-08-30T01:42:22.351Z,18.70
2018-08-30T01:44:50.809Z,18.70
2018-08-30T01:47:18.998Z,18.60
2018-08-30T01:49:47.332Z,18.40
2018-08-30T01:52:15.751Z,18.20
2018-08-30T01:54:44.094Z,18.10
2018-08-30T01:57:12.325Z,18.10
2018-08-30T01:59:40.562Z,17.90
2018-08-30T02:02:08.901Z,17.90
2018-08-30T02:04:37.282Z,17.90
2018-08-30T02:07:06.172Z,17.80
2018-08-30T02:09:34.574Z,17.70
2018-08-30T02:12:03.166Z,17.70
2018-08-30T02:14:31.642Z,17.70
2018-08-30T02:16:59.991Z,17.70
2018-08-30T02:19:28.268Z,17.70
2018-08-30T02:21:56.654Z,17.70
2018-08-30T02:24:24.947Z,17.80
2018-08-30T02:26:53.326Z,17.80
2018-08-30T02:29:21.651Z,17.90
2018-08-30T02:31:49.909Z,18.00
2018-08-30T02:34:18.161Z,18.00
2018-08-30T02:36:46.497Z,18.00
2018-08-30T02:39:14.786Z,18.00
2018-08-30T02:41:42.995Z,18.00
2018-08-30T02:44:11.188Z,18.00
2018-08-30T02:46:39.483Z,18.00
2018-08-30T02:49:08.020Z,17.90
2018-08-30T02:51:36.403Z,17.80
2018-08-30T02:54:04.631Z,17.80
2018-08-30T02:56:33.001Z,17.70
2018-08-30T02:59:01.380Z,17.70
2018-08-30T03:01:29.687Z,17.70
2018-08-30T03:03:57.941Z,17.60
2018-08-30T03:06:26.145Z,17.60
2018-08-30T03:08:54.425Z,17.50
2018-08-30T03:11:22.628Z,17.50
2018-08-30T03:13:50.879Z,17.50
2018-08-30T03:16:19.049Z,17.40
2018-08-30T03:18:47.337Z,17.30
2018-08-30T03:21:15.554Z,17.20
2018-08-30T03:23:43.771Z,17.20
2018-08-30T03:26:12.156Z,17.10
2018-08-30T03:28:40.489Z,17.00
2018-08-30T03:31:08.917Z,17.10
2018-08-30T03:33:37.356Z,17.10
2018-08-30T03:36:05.883Z,17.10
2018-08-30T03:38:34.318Z,17.10
2018-08-30T03:41:02.795Z,17.10
2018-08-30T03:43:31.323Z,17.00
2018-08-30T03:46:00.003Z,17.00
2018-08-30T03:48:28.217Z,17.00
2018-08-30T03:50:56.650Z,17.00
2018-08-30T03:53:24.897Z,17.00
2018-08-30T03:55:53.141Z,17.00
2018-08-30T03:58:21.434Z,17.10
2018-08-30T04:00:49.737Z,17.00
2018-08-30T04:03:18.008Z,17.00
2018-08-30T04:05:46.250Z,17.00
2018-08-30T04:08:14.698Z,17.00
2018-08-30T04:10:42.996Z,16.90
2018-08-30T04:13:11.325Z,16.90
2018-08-30T04:15:39.805Z,16.90
2018-08-30T04:18:08.153Z,16.80
2018-08-30T04:20:36.505Z,16.80
2018-08-30T04:23:04.769Z,16.80
2018-08-30T04:25:33.408Z,16.80
2018-08-30T04:28:02.012Z,16.70
2018-08-30T04:30:30.354Z,16.80
2018-08-30T04:32:58.635Z,16.80
2018-08-30T04:35:26.789Z,16.70
2018-08-30T04:37:55.086Z,16.80
2018-08-30T04:40:23.357Z,16.80
2018-08-30T04:42:51.718Z,16.80
2018-08-30T04:45:19.929Z,16.80
2018-08-30T04:47:48.064Z,16.70
2018-08-30T04:50:16.342Z,16.60
2018-08-30T04:52:44.411Z,16.70
2018-08-30T04:55:12.581Z,16.70
2018-08-30T04:57:40.720Z,16.60
2018-08-30T05:00:09.024Z,16.70
2018-08-30T05:02:37.442Z,16.60
2018-08-30T05:05:05.802Z,16.60
2018-08-30T05:07:34.021Z,16.60
2018-08-30T05:10:02.310Z,16.60
2018-08-30T05:12:30.512Z,16.60
2018-08-30T05:14:58.717Z,16.60
2018-08-30T05:17:26.869Z,16.60
2018-08-30T05:19:55.144Z,16.60
2018-08-30T05:22:23.833Z,16.60
2018-08-30T05:24:51.984Z,16.70
2018-08-30T05:27:20.163Z,16.70
2018-08-30T05:29:48.532Z,16.70
2018-08-30T05:32:16.638Z,16.70
2018-08-30T05:34:44.881Z,16.60
2018-08-30T05:37:13.074Z,16.70
2018-08-30T05:39:41.245Z,16.70
2018-08-30T05:42:09.554Z,16.70
2018-08-30T05:44:38.116Z,16.80
2018-08-30T05:47:06.385Z,16.80
2018-08-30T05:49:34.833Z,16.80
2018-08-30T05:52:03.230Z,16.80
2018-08-30T05:54:31.606Z,16.80
2018-08-30T05:57:01.708Z,16.80
2018-08-30T05:59:29.849Z,16.80
2018-08-30T06:01:58.195Z,16.90
2018-08-30T06:04:26.390Z,16.90
2018-08-30T06:06:54.561Z,17.00
2018-08-30T06:09:23.251Z,17.00
2018-08-30T06:11:51.502Z,17.00
2018-08-30T06:14:19.681Z,17.00
2018-08-30T06:16:47.979Z,17.00
2018-08-30T06:19:16.174Z,17.00
2018-08-30T06:21:44.501Z,17.10
2018-08-30T06:24:12.760Z,17.10
2018-08-30T06:26:41.041Z,17.20
2018-08-30T06:29:09.233Z,17.20
2018-08-30T06:31:37.376Z,17.20
2018-08-30T06:34:05.644Z,17.20
2018-08-30T06:36:33.781Z,17.20
2018-08-30T06:39:02.106Z,17.30
2018-08-30T06:41:30.299Z,17.40
2018-08-30T06:43:58.689Z,17.50
2018-08-30T06:46:26.950Z,17.50
2018-08-30T06:48:55.175Z,17.50
2018-08-30T06:51:23.546Z,17.50
2018-08-30T06:53:51.777Z,17.60
2018-08-30T06:56:20.221Z,17.60
2018-08-30T06:58:48.606Z,17.60
2018-08-30T07:01:16.809Z,17.70
2018-08-30T07:03:44.933Z,17.70
2018-08-30T07:06:13.097Z,17.70
2018-08-30T07:08:41.428Z,17.70
2018-08-30T07:11:09.757Z,17.70
2018-08-30T07:13:38.017Z,17.70
2018-08-30T07:16:06.923Z,17.80
2018-08-30T07:18:36.131Z,17.90
2018-08-30T07:21:04.415Z,18.00
2018-08-30T07:23:32.708Z,18.00
2018-08-30T07:26:00.961Z,18.10
2018-08-30T07:28:29.247Z,18.10
2018-08-30T07:30:57.474Z,18.10
2018-08-30T07:33:25.671Z,18.10
2018-08-30T07:35:53.929Z,18.10
2018-08-30T07:38:22.260Z,18.30
2018-08-30T07:40:50.506Z,18.30
2018-08-30T07:43:18.787Z,18.30
2018-08-30T07:45:47.045Z,18.30
2018-08-30T07:48:15.282Z,18.40
2018-08-30T07:50:43.511Z,18.50
2018-08-30T07:53:12.708Z,18.60
2018-08-30T07:55:41.102Z,18.80
2018-08-30T07:58:09.363Z,19.10
2018-08-30T08:00:37.709Z,19.40
2018-08-30T08:03:06.374Z,19.60
2018-08-30T08:05:34.796Z,19.50
2018-08-30T08:08:03.242Z,19.50
2018-08-30T08:10:31.692Z,19.40
2018-08-30T08:12:59.939Z,19.40
2018-08-30T08:15:28.224Z,19.50
2018-08-30T08:17:56.509Z,19.50
2018-08-30T08:20:24.856Z,19.50
2018-08-30T08:22:53.117Z,19.40
2018-08-30T08:25:21.465Z,19.40
2018-08-30T08:27:50.066Z,19.70
2018-08-30T08:30:18.641Z,19.70
2018-08-30T08:32:46.985Z,19.70
2018-08-30T08:35:15.422Z,19.70
2018-08-30T08:37:43.790Z,19.90
2018-08-30T08:40:12.094Z,20.10
2018-08-30T08:42:40.453Z,20.20
2018-08-30T08:45:08.944Z,20.10
2018-08-30T08:47:37.504Z,20.10
2018-08-30T08:50:06.407Z,20.10
2018-08-30T08:52:35.063Z,20.00
2018-08-30T08:55:03.562Z,19.90
2018-08-30T08:57:31.961Z,19.70
2018-08-30T09:00:00.231Z,19.70
2018-08-30T09:02:28.473Z,19.60
2018-08-30T09:04:56.902Z,19.50
2018-08-30T09:07:25.258Z,19.40
2018-08-30T09:09:53.597Z,19.10
2018-08-30T09:12:21.945Z,19.10
2018-08-30T09:14:50.808Z,19.10
2018-08-30T09:17:19.093Z,19.10
2018-08-30T09:19:47.661Z,19.40
2018-08-30T09:22:16.014Z,19.90
2018-08-30T09:24:44.292Z,20.50
2018-08-30T09:27:12.721Z,20.90
2018-08-30T09:29:41.123Z,21.00
2018-08-30T09:32:09.474Z,21.00
2018-08-30T09:34:37.777Z,21.00
2018-08-30T09:37:06.125Z,21.40
2018-08-30T09:39:34.641Z,21.80
2018-08-30T09:42:02.993Z,21.80
2018-08-30T09:44:31.384Z,22.00
2018-08-30T09:46:59.609Z,22.00
2018-08-30T09:49:27.886Z,22.30
2018-08-30T09:51:55.970Z,22.70
2018-08-30T09:54:24.119Z,22.50
2018-08-30T09:56:52.423Z,22.50
2018-08-30T09:59:20.470Z,22.40
2018-08-30T10:01:50.903Z,22.20
2018-08-30T10:04:20.084Z,22.00
2018-08-30T10:06:48.257Z,21.90
2018-08-30T10:09:16.462Z,21.90
2018-08-30T10:11:44.719Z,21.80
2018-08-30T10:14:12.948Z,21.70
2018-08-30T10:16:41.394Z,21.60
2018-08-30T10:19:09.741Z,21.80
2018-08-30T10:21:38.011Z,22.20
2018-08-30T10:24:07.118Z,22.50
2018-08-30T10:26:35.456Z,22.90
2018-08-30T10:29:04.001Z,23.40
2018-08-30T10:31:32.259Z,23.70
2018-08-30T10:34:00.369Z,23.60
2018-08-30T10:36:28.875Z,23.40
2018-08-30T10:38:57.017Z,23.20
2018-08-30T10:41:25.182Z,23.30
2018-08-30T10:43:53.314Z,23.40
2018-08-30T10:46:22.422Z,23.50
2018-08-30T10:48:50.800Z,23.50
2018-08-30T10:51:18.977Z,23.60
2018-08-30T10:53:47.165Z,23.70
2018-08-30T10:56:15.359Z,23.80
2018-08-30T10:58:43.672Z,23.60
2018-08-30T11:01:12.187Z,23.60
2018-08-30T11:03:40.814Z,23.60
2018-08-30T11:06:09.472Z,23.50
2018-08-30T11:08:37.993Z,23.40
2018-08-30T11:11:06.830Z,23.30
2018-08-30T11:13:36.309Z,23.30
2018-08-30T11:16:04.847Z,23.30
2018-08-30T11:18:33.288Z,23.20
2018-08-30T11:21:01.742Z,23.00
2018-08-30T11:23:29.969Z,22.90
2018-08-30T11:25:58.162Z,22.60
2018-08-30T11:28:26.354Z,22.50
2018-08-30T11:30:54.516Z,22.30
2018-08-30T11:33:22.686Z,22.20
2018-08-30T11:35:50.846Z,22.50
2018-08-30T11:38:19.013Z,22.80
2018-08-30T11:40:47.186Z,23.20
2018-08-30T11:43:15.362Z,23.50
2018-08-30T11:45:44.360Z,23.80
2018-08-30T11:48:12.980Z,24.10
2018-08-30T11:50:41.954Z,24.30
2018-08-30T11:53:10.504Z,24.60
2018-08-30T11:55:38.761Z,24.70
2018-08-30T11:58:07.944Z,24.70
2018-08-30T12:00:37.133Z,24.60
2018-08-30T12:03:06.306Z,24.50
2018-08-30T12:05:35.641Z,24.50
2018-08-30T12:08:05.014Z,24.30
2018-08-30T12:10:36.572Z,24.00
2018-08-30T12:13:07.061Z,23.70
2018-08-30T12:15:36.749Z,23.50
2018-08-30T12:18:06.490Z,23.30
2018-08-30T12:20:36.165Z,23.00
2018-08-30T12:23:05.616Z,22.80
2018-08-30T12:25:36.161Z,22.80
2018-08-30T12:28:06.875Z,22.80
2018-08-30T12:30:37.330Z,22.80
2018-08-30T12:33:07.628Z,22.80
2018-08-30T12:35:37.185Z,22.80
2018-08-30T12:38:07.060Z,22.80
2018-08-30T12:40:37.111Z,22.80
2018-08-30T12:43:07.650Z,22.80
2018-08-30T12:45:37.118Z,22.80
2018-08-30T12:48:06.670Z,22.80
2018-08-30T12:50:37.209Z,22.70
2018-08-30T12:53:06.938Z,22.60
2018-08-30T12:55:36.974Z,22.70
2018-08-30T12:58:07.978Z,22.80
2018-08-30T13:00:38.131Z,22.80
2018-08-30T13:03:07.875Z,22.90
2018-08-30T13:05:38.370Z,23.00
2018-08-30T13:08:08.156Z,23.10
2018-08-30T13:10:37.647Z,23.20
2018-08-30T13:13:08.061Z,23.40
2018-08-30T13:15:37.639Z,23.30
2018-08-30T13:18:07.251Z,23.30
2018-08-30T13:20:37.205Z,23.10
2018-08-30T13:23:06.586Z,23.20
2018-08-30T13:25:36.117Z,23.50
2018-08-30T13:28:06.279Z,23.80
2018-08-30T13:30:35.819Z,24.00
2018-08-30T13:33:06.200Z,24.10
2018-08-30T13:35:35.881Z,24.20
2018-08-30T13:38:06.963Z,24.40
2018-08-30T13:40:36.577Z,24.60
2018-08-30T13:43:06.815Z,24.70
2018-08-30T13:45:36.855Z,24.60
2018-08-30T13:48:07.038Z,24.50
2018-08-30T13:50:36.264Z,24.30
2018-08-30T13:53:07.593Z,24.10
2018-08-30T13:55:36.797Z,23.90
2018-08-30T13:58:06.997Z,23.80
2018-08-30T14:00:37.901Z,23.70
2018-08-30T14:03:11.877Z,23.70
2018-08-30T14:05:40.783Z,23.60
2018-08-30T14:08:09.878Z,23.60
2018-08-30T14:10:39.260Z,23.80
2018-08-30T14:13:09.670Z,24.00
2018-08-30T14:15:39.305Z,23.90
2018-08-30T14:18:08.565Z,24.00
2018-08-30T14:20:38.149Z,24.00
2018-08-30T14:23:09.637Z,24.00
2018-08-30T14:25:40.548Z,24.00
2018-08-30T14:28:10.021Z,23.80
2018-08-30T14:30:39.572Z,23.60
2018-08-30T14:33:11.598Z,23.60
2018-08-30T14:35:41.492Z,23.80
2018-08-30T14:38:10.405Z,24.00
2018-08-30T14:40:39.570Z,24.30
2018-08-30T14:43:08.946Z,24.50
2018-08-30T14:45:39.659Z,24.50
2018-08-30T14:48:09.060Z,24.50
2018-08-30T14:50:38.378Z,24.70
2018-08-30T14:53:10.514Z,24.80
2018-08-30T14:55:41.961Z,24.90
2018-08-30T14:58:10.901Z,24.90
2018-08-30T15:00:41.366Z,25.00
2018-08-30T15:03:10.693Z,25.00
2018-08-30T15:05:39.478Z,25.00
2018-08-30T15:08:09.166Z,24.90
2018-08-30T15:10:38.887Z,24.70
2018-08-30T15:13:08.497Z,24.50
2018-08-30T15:15:38.635Z,24.40
2018-08-30T15:18:08.622Z,24.20
2018-08-30T15:20:38.398Z,24.10
2018-08-30T15:23:09.813Z,23.90
2018-08-30T15:25:39.170Z,23.80
2018-08-30T15:28:08.691Z,23.70
2018-08-30T15:30:38.094Z,23.60
2018-08-30T15:33:08.114Z,23.50
2018-08-30T15:35:37.818Z,23.40
2018-08-30T15:38:08.076Z,23.30
2018-08-30T15:40:37.871Z,23.30
2018-08-30T15:43:08.061Z,23.30
2018-08-30T15:45:37.645Z,23.30
2018-08-30T15:48:07.907Z,23.20
2018-08-30T15:50:37.731Z,23.20
2018-08-30T15:53:08.110Z,23.20
2018-08-30T15:55:37.777Z,23.20
2018-08-30T15:58:07.621Z,23.20
2018-08-30T16:00:38.552Z,23.10
2018-08-30T16:03:08.461Z,22.90
2018-08-30T16:05:37.961Z,22.80
2018-08-30T16:08:08.028Z,22.60
2018-08-30T16:10:37.756Z,22.50
2018-08-30T16:13:08.299Z,22.50
2018-08-30T16:15:38.340Z,22.40
2018-08-30T16:18:08.983Z,22.40
2018-08-30T16:20:39.001Z,22.30
2018-08-30T16:23:20.912Z,22.10
2018-08-30T16:25:49.042Z,22.00
2018-08-30T16:28:19.515Z,21.90
2018-08-30T16:30:47.868Z,21.70
2018-08-30T16:33:16.696Z,21.50
2018-08-30T16:35:45.631Z,21.40
2018-08-30T16:38:15.367Z,21.40
2018-08-30T16:40:44.899Z,21.30
2018-08-30T16:43:15.099Z,21.20
2018-08-30T16:45:44.798Z,21.20
2018-08-30T16:48:14.295Z,21.10
2018-08-30T16:50:45.243Z,21.00
2018-08-30T16:53:15.733Z,20.90
2018-08-30T16:55:46.656Z,20.70
2018-08-30T16:58:15.962Z,20.70
2018-08-30T17:00:45.716Z,20.70
2018-08-30T17:03:15.694Z,20.70
2018-08-30T17:05:43.918Z,20.80
2018-08-30T17:08:12.208Z,20.80
2018-08-30T17:10:40.410Z,20.80
2018-08-30T17:13:08.625Z,20.80
2018-08-30T17:15:36.802Z,20.80
2018-08-30T17:18:06.254Z,20.80
2018-08-30T17:20:47.907Z,20.80
2018-08-30T17:23:16.147Z,20.70
2018-08-30T17:25:44.773Z,20.60
2018-08-30T17:28:13.218Z,20.50
2018-08-30T17:30:42.386Z,20.50
2018-08-30T17:33:11.368Z,20.50
2018-08-30T17:35:40.167Z,20.50
2018-08-30T17:38:09.020Z,20.30
2018-08-30T17:40:38.190Z,20.30
2018-08-30T17:43:08.067Z,20.30
2018-08-30T17:45:37.958Z,20.30
2018-08-30T17:48:06.981Z,20.30
2018-08-30T17:50:35.934Z,20.30
2018-08-30T17:53:05.246Z,20.20
2018-08-30T17:55:34.930Z,20.20
2018-08-30T17:58:03.951Z,20.10
2018-08-30T18:00:32.966Z,20.20
2018-08-30T18:03:01.733Z,20.10
2018-08-30T18:05:30.006Z,20.20
2018-08-30T18:07:58.219Z,20.10
2018-08-30T18:10:26.466Z,20.00
2018-08-30T18:12:54.698Z,20.00
2018-08-30T18:15:22.896Z,20.00
2018-08-30T18:17:51.197Z,20.00
2018-08-30T18:20:19.433Z,19.90
2018-08-30T18:22:47.673Z,19.90
2018-08-30T18:25:15.964Z,19.90
2018-08-30T18:27:44.150Z,19.80
2018-08-30T18:30:12.846Z,19.90
2018-08-30T18:32:41.950Z,19.80
2018-08-30T18:35:11.412Z,19.70
2018-08-30T18:37:40.725Z,19.70
2018-08-30T18:40:10.844Z,19.70
2018-08-30T18:42:39.881Z,19.70
2018-08-30T18:45:11.560Z,19.70
2018-08-30T18:47:40.310Z,19.70
2018-08-30T18:50:09.528Z,19.70
2018-08-30T18:52:39.059Z,19.70
2018-08-30T18:55:10.391Z,19.70
2018-08-30T18:57:38.987Z,19.70
2018-08-30T19:00:09.040Z,19.60
2018-08-30T19:02:37.705Z,19.60
2018-08-30T19:05:06.541Z,19.60
2018-08-30T19:07:35.574Z,19.60
2018-08-30T19:10:04.176Z,19.60
2018-08-30T19:12:32.523Z,19.70
2018-08-30T19:15:04.834Z,19.60
2018-08-30T19:17:40.067Z,19.60
2018-08-30T19:20:09.113Z,19.60
2018-08-30T19:22:38.880Z,19.60
2018-08-30T19:25:16.682Z,19.60
2018-08-30T19:27:45.905Z,19.50
2018-08-30T19:30:19.959Z,19.50
2018-08-30T19:32:48.201Z,19.50
2018-08-30T19:35:21.917Z,19.40
2018-08-30T19:37:50.260Z,19.40
2018-08-30T19:40:23.943Z,19.40
2018-08-30T19:42:52.198Z,19.40
2018-08-30T19:45:20.424Z,19.40
2018-08-30T19:47:48.780Z,19.30
2018-08-30T19:50:17.058Z,19.30
2018-08-30T19:52:45.354Z,19.30
2018-08-30T19:55:14.395Z,19.40
2018-08-30T19:57:43.836Z,19.40
2018-08-30T20:00:13.629Z,19.40
2018-08-30T20:02:43.095Z,19.40
2018-08-30T20:05:11.772Z,19.30
2018-08-30T20:07:40.620Z,19.20
2018-08-30T20:10:09.175Z,19.10
2018-08-30T20:12:37.885Z,19.00
2018-08-30T20:15:06.858Z,19.00
2018-08-30T20:17:35.454Z,19.00
2018-08-30T20:20:04.970Z,19.00
2018-08-30T20:22:33.707Z,19.00
2018-08-30T20:25:02.052Z,19.00
2018-08-30T20:27:30.338Z,19.00
2018-08-30T20:29:58.619Z,19.00
2018-08-30T20:32:26.908Z,18.90
2018-08-30T20:34:55.198Z,18.80
2018-08-30T20:37:23.652Z,18.80
2018-08-30T20:39:52.006Z,18.70
2018-08-30T20:42:20.451Z,18.70
2018-08-30T20:44:48.789Z,18.60
2018-08-30T20:47:17.063Z,18.50
2018-08-30T20:49:45.851Z,18.40
2018-08-30T20:52:14.607Z,18.40
2018-08-30T20:54:44.218Z,18.40
2018-08-30T20:57:13.070Z,18.40
2018-08-30T20:59:42.162Z,18.50
2018-08-30T21:02:11.298Z,18.50
2018-08-30T21:04:40.190Z,18.60
2018-08-30T21:07:09.187Z,18.60
2018-08-30T21:09:38.621Z,18.70
2018-08-30T21:12:07.674Z,18.60
2018-08-30T21:14:37.090Z,18.70
2018-08-30T21:17:06.957Z,18.70
2018-08-30T21:19:36.260Z,18.80
2018-08-30T21:22:06.818Z,18.80
2018-08-30T21:24:36.854Z,18.70
2018-08-30T21:29:54.304Z,18.70
2018-08-30T21:32:22.637Z,18.60
2018-08-30T21:34:50.895Z,18.60
2018-08-30T21:37:19.188Z,18.50
2018-08-30T21:39:47.860Z,18.40
2018-08-30T21:42:16.607Z,18.40
2018-08-30T21:44:45.800Z,18.40
2018-08-30T21:47:14.994Z,18.40
2018-08-30T21:49:44.106Z,18.30
2018-08-30T21:52:13.099Z,18.20
2018-08-30T21:54:41.897Z,18.10
2018-08-30T21:57:10.514Z,18.00
2018-08-30T21:59:39.429Z,17.90
2018-08-30T22:02:08.067Z,17.80
2018-08-30T22:04:36.772Z,17.80
2018-08-30T22:07:05.557Z,17.80
2018-08-30T22:09:34.058Z,17.80
2018-08-30T22:12:02.363Z,17.80
2018-08-30T22:14:30.811Z,17.80
2018-08-30T22:16:59.239Z,17.80
2018-08-30T22:19:27.865Z,17.70
2018-08-30T22:21:56.286Z,17.70
2018-08-30T22:24:24.945Z,17.70
2018-08-30T22:26:53.452Z,17.70
2018-08-30T22:29:22.097Z,17.60
2018-08-30T22:31:50.850Z,17.70
2018-08-30T22:34:19.234Z,17.50
2018-08-30T22:36:47.585Z,17.40
2018-08-30T22:39:15.829Z,17.30
2018-08-30T22:41:44.132Z,17.20
2018-08-30T22:44:12.516Z,17.10
2018-08-30T22:46:40.806Z,17.00
2018-08-30T22:49:08.960Z,17.00
2018-08-30T22:51:37.470Z,17.10
2018-08-30T22:54:05.721Z,17.20
2018-08-30T22:56:33.964Z,17.20
2018-08-30T22:59:02.164Z,17.20
2018-08-30T23:01:30.386Z,17.20
2018-08-30T23:03:58.813Z,17.20
2018-08-30T23:06:27.205Z,17.30
2018-08-30T23:08:55.793Z,17.30
2018-08-30T23:11:24.493Z,17.40
2018-08-30T23:13:53.132Z,17.30
2018-08-30T23:16:21.660Z,17.20
2018-08-30T23:18:50.824Z,17.10
2018-08-30T23:21:19.157Z,17.00
2018-08-30T23:23:47.360Z,16.90
2018-08-30T23:26:15.564Z,16.80
2018-08-30T23:28:43.791Z,16.80
2018-08-30T23:31:12.026Z,16.70
2018-08-30T23:33:40.231Z,16.70
2018-08-30T23:36:08.454Z,16.60
2018-08-30T23:38:36.834Z,16.70
2018-08-30T23:41:05.317Z,16.70
2018-08-30T23:43:33.537Z,16.80
2018-08-30T23:46:01.758Z,16.70
2018-08-30T23:48:30.014Z,16.70
2018-08-30T23:50:58.360Z,16.60
2018-08-30T23:53:26.708Z,16.60
2018-08-30T23:55:55.069Z,16.60
2018-08-30T23:58:34.628Z,16.60
